UKKK

Kiev Zhuliany International Airport

Kiev, Ukraine
TAF UKKK 201701Z 2018/2118 32003G08MPS 9999 BKN020 BECMG 2104/2106 27006G12MPS TEMPO 2109/2118 29008G14MPS SCT020CB
Issued Valid From Valid To
Apr-20 @ 17:01 UTC
(an hour ago)
Apr-20 @ 18:00 UTC
(31 minutes ago)
Apr-21 @ 18:00 UTC
(in 23 hours)
Apr-20 @ 18:00 to Apr-21 @ 04:00
TAF UKKK 201701Z 2018/2118 32003G08MPS 9999 BKN020
Wind Visibility Clouds
320° at 6 knots
 Gusting to 16 knots
10,000+ meters
  • Broken at 2,000' AGL
Becoming Apr-21 @ 04:00 to Apr-21 @ 18:00
BECMG 2104/2106 27006G12MPS
Wind Visibility Clouds
270° at 12 knots
 Gusting to 23 knots
10,000+ meters
  • Broken at 2,000' AGL
Temporary Apr-21 @ 09:00 to Apr-21 @ 18:00
TEMPO 2109/2118 29008G14MPS SCT020CB
Wind Clouds
290° at 16 knots
 Gusting to 27 knots
  • Scattered at 2,000' AGL
TAF UKKK 201701Z 2018/2118 32003G08MPS 9999 BKN020 BECMG 2104/2106 27006G12MPS TEMPO 2109/2118 29008G14MPS SCT020CB
Issued Apr-20 @ 17:01 UTC
(an hour ago)
Valid From Apr-20 @ 18:00 UTC
(31 minutes ago)
Valid To Apr-21 @ 18:00 UTC
(in 23 hours)
Apr-20 @ 18:00 - Apr-21 @ 04:00
Wind Visibility
320° at 6 knots
 Gusting to 16 knots
10,000+ meters
Clouds
  • Broken at 2,000' AGL
Becoming Apr-21 @ 04:00 - Apr-21 @ 18:00
Wind Visibility
270° at 12 knots
 Gusting to 23 knots
10,000+ meters
Clouds
  • Broken at 2,000' AGL
Temporary Apr-21 @ 09:00 - Apr-21 @ 18:00
Wind
290° at 16 knots
 Gusting to 27 knots
Clouds
  • Scattered at 2,000' AGL